sensor_id;sensor_type;location;lat;lon;timestamp;pressure;altitude;pressure_sealevel;temperature
15701;BMP180;7950;42.744;23.174;2023-02-01T00:00:31;94471.66;;;0.85
15701;BMP180;7950;42.744;23.174;2023-02-01T00:03:01;94477.66;;;0.92
15701;BMP180;7950;42.744;23.174;2023-02-01T00:05:31;94491.16;;;0.88
15701;BMP180;7950;42.744;23.174;2023-02-01T00:07:59;94479.44;;;0.92
15701;BMP180;7950;42.744;23.174;2023-02-01T00:10:28;94474.66;;;0.89
15701;BMP180;7950;42.744;23.174;2023-02-01T00:12:56;94480.00;;;0.87
15701;BMP180;7950;42.744;23.174;2023-02-01T00:15:25;94474.66;;;0.89
15701;BMP180;7950;42.744;23.174;2023-02-01T00:17:54;94491.69;;;0.83
15701;BMP180;7950;42.744;23.174;2023-02-01T00:20:23;94490.16;;;0.89
15701;BMP180;7950;42.744;23.174;2023-02-01T00:22:52;94489.91;;;0.84
15701;BMP180;7950;42.744;23.174;2023-02-01T00:25:21;94485.13;;;0.81
15701;BMP180;7950;42.744;23.174;2023-02-01T00:27:50;94486.72;;;0.82
15701;BMP180;7950;42.744;23.174;2023-02-01T00:30:23;94484.75;;;0.84
15701;BMP180;7950;42.744;23.174;2023-02-01T00:32:52;94487.47;;;0.76
15701;BMP180;7950;42.744;23.174;2023-02-01T00:35:20;94479.50;;;0.71
15701;BMP180;7950;42.744;23.174;2023-02-01T00:37:49;94480.53;;;0.76
15701;BMP180;7950;42.744;23.174;2023-02-01T00:40:19;94483.22;;;0.62
15701;BMP180;7950;42.744;23.174;2023-02-01T00:42:48;94472.47;;;0.58
15701;BMP180;7950;42.744;23.174;2023-02-01T00:45:17;94467.69;;;0.55
15701;BMP180;7950;42.744;23.174;2023-02-01T00:47:45;94476.22;;;0.56
15701;BMP180;7950;42.744;23.174;2023-02-01T00:50:14;94477.34;;;0.47
15701;BMP180;7950;42.744;23.174;2023-02-01T00:52:43;94464.59;;;0.39
15701;BMP180;7950;42.744;23.174;2023-02-01T00:55:11;94469.75;;;0.39
15701;BMP180;7950;42.744;23.174;2023-02-01T00:57:41;94458.19;;;0.35
15701;BMP180;7950;42.744;23.174;2023-02-01T01:00:11;94458.19;;;0.35
15701;BMP180;7950;42.744;23.174;2023-02-01T01:02:41;94463.31;;;0.28
15701;BMP180;7950;42.744;23.174;2023-02-01T01:05:09;94462.13;;;0.31
15701;BMP180;7950;42.744;23.174;2023-02-01T01:07:38;94457.78;;;0.31
15701;BMP180;7950;42.744;23.174;2023-02-01T01:10:09;94461.31;;;0.30
15701;BMP180;7950;42.744;23.174;2023-02-01T01:13:04;94459.56;;;0.31
15701;BMP180;7950;42.744;23.174;2023-02-01T01:15:36;94457.38;;;0.34
15701;BMP180;7950;42.744;23.174;2023-02-01T01:18:05;94457.78;;;0.31
15701;BMP180;7950;42.744;23.174;2023-02-01T01:20:37;94459.19;;;0.34
15701;BMP180;7950;42.744;23.174;2023-02-01T01:23:07;94459.78;;;0.36
15701;BMP180;7950;42.744;23.174;2023-02-01T01:25:38;94465.81;;;0.43
15701;BMP180;7950;42.744;23.174;2023-02-01T01:28:08;94457.44;;;0.41
15701;BMP180;7950;42.744;23.174;2023-02-01T01:30:37;94465.41;;;0.46
15701;BMP180;7950;42.744;23.174;2023-02-01T01:33:05;94462.66;;;0.47
15701;BMP180;7950;42.744;23.174;2023-02-01T01:35:34;94459.66;;;0.44
15701;BMP180;7950;42.744;23.174;2023-02-01T01:38:10;94465.38;;;0.39
15701;BMP180;7950;42.744;23.174;2023-02-01T01:40:39;94454.69;;;0.42
15701;BMP180;7950;42.744;23.174;2023-02-01T01:43:15;94459.44;;;0.39
15701;BMP180;7950;42.744;23.174;2023-02-01T01:45:44;94456.56;;;0.27
15701;BMP180;7950;42.744;23.174;2023-02-01T01:48:17;94452.41;;;0.32
15701;BMP180;7950;42.744;23.174;2023-02-01T01:50:52;94457.97;;;0.30
15701;BMP180;7950;42.744;23.174;2023-02-01T01:53:44;94460.50;;;0.23
15701;BMP180;7950;42.744;23.174;2023-02-01T01:56:14;94465.94;;;0.35
15701;BMP180;7950;42.744;23.174;2023-02-01T01:58:44;94453.28;;;0.40
15701;BMP180;7950;42.744;23.174;2023-02-01T02:01:13;94457.81;;;0.38
15701;BMP180;7950;42.744;23.174;2023-02-01T02:03:44;94463.63;;;0.18
15701;BMP180;7950;42.744;23.174;2023-02-01T02:06:27;94464.00;;;0.16
15701;BMP180;7950;42.744;23.174;2023-02-01T02:09:24;94450.25;;;0.08
15701;BMP180;7950;42.744;23.174;2023-02-01T02:11:52;94462.31;;;0.08
15701;BMP180;7950;42.744;23.174;2023-02-01T02:14:24;94465.00;;;-0.07
15701;BMP180;7950;42.744;23.174;2023-02-01T02:17:07;94476.50;;;-0.03
15701;BMP180;7950;42.744;23.174;2023-02-01T02:20:39;94484.25;;;-0.03
15701;BMP180;7950;42.744;23.174;2023-02-01T02:23:59;94495.78;;;0.01
15701;BMP180;7950;42.744;23.174;2023-02-01T02:27:04;94492.09;;;0.10
15701;BMP180;7950;42.744;23.174;2023-02-01T02:30:15;94497.78;;;-0.01
15701;BMP180;7950;42.744;23.174;2023-02-01T02:36:19;94497.03;;;0.05
15701;BMP180;7950;42.744;23.174;2023-02-01T02:39:00;94497.84;;;0.06
15701;BMP180;7950;42.744;23.174;2023-02-01T02:41:48;94490.03;;;-0.01
15701;BMP180;7950;42.744;23.174;2023-02-01T02:44:45;94495.38;;;-0.02
15701;BMP180;7950;42.744;23.174;2023-02-01T02:47:42;94487.31;;;-0.14
15701;BMP180;7950;42.744;23.174;2023-02-01T02:50:24;94489.47;;;-0.17
15701;BMP180;7950;42.744;23.174;2023-02-01T02:53:18;94483.34;;;-0.16
15701;BMP180;7950;42.744;23.174;2023-02-01T02:56:08;94474.72;;;-0.23
15701;BMP180;7950;42.744;23.174;2023-02-01T02:58:56;94477.19;;;-0.15
15701;BMP180;7950;42.744;23.174;2023-02-01T03:01:43;94487.56;;;-0.09
15701;BMP180;7950;42.744;23.174;2023-02-01T03:04:29;94493.72;;;-0.10
15701;BMP180;7950;42.744;23.174;2023-02-01T03:07:13;94498.88;;;-0.10
15701;BMP180;7950;42.744;23.174;2023-02-01T03:09:47;94503.66;;;-0.07
15701;BMP180;7950;42.744;23.174;2023-02-01T03:12:17;94505.00;;;-0.11
15701;BMP180;7950;42.744;23.174;2023-02-01T03:15:28;94516.41;;;0.01
15701;BMP180;7950;42.744;23.174;2023-02-01T03:18:00;94512.25;;;0.00
15701;BMP180;7950;42.744;23.174;2023-02-01T03:20:31;94497.59;;;0.01
15701;BMP180;7950;42.744;23.174;2023-02-01T03:23:04;94500.53;;;-0.02
15701;BMP180;7950;42.744;23.174;2023-02-01T03:25:35;94508.09;;;-0.01
15701;BMP180;7950;42.744;23.174;2023-02-01T03:28:07;94507.84;;;-0.06
15701;BMP180;7950;42.744;23.174;2023-02-01T03:30:40;94508.44;;;-0.04
15701;BMP180;7950;42.744;23.174;2023-02-01T03:33:15;94507.38;;;-0.09
15701;BMP180;7950;42.744;23.174;2023-02-01T03:36:31;94498.31;;;-0.05
15701;BMP180;7950;42.744;23.174;2023-02-01T03:39:32;94501.69;;;-0.05
15701;BMP180;7950;42.744;23.174;2023-02-01T03:42:30;94491.38;;;-0.05
15701;BMP180;7950;42.744;23.174;2023-02-01T03:45:07;94486.72;;;0.05
15701;BMP180;7950;42.744;23.174;2023-02-01T03:48:02;94492.78;;;-0.02
15701;BMP180;7950;42.744;23.174;2023-02-01T03:50:35;94494.19;;;0.00
15701;BMP180;7950;42.744;23.174;2023-02-01T03:53:10;94505.09;;;-0.04
15701;BMP180;7950;42.744;23.174;2023-02-01T03:55:42;94496.28;;;-0.10
15701;BMP180;7950;42.744;23.174;2023-02-01T03:58:16;94504.34;;;0.02
15701;BMP180;7950;42.744;23.174;2023-02-01T04:00:51;94509.50;;;0.02
15701;BMP180;7950;42.744;23.174;2023-02-01T04:03:21;94511.25;;;0.01
15701;BMP180;7950;42.744;23.174;2023-02-01T04:05:50;94507.16;;;0.07
15701;BMP180;7950;42.744;23.174;2023-02-01T04:08:20;94503.59;;;0.08
15701;BMP180;7950;42.744;23.174;2023-02-01T04:10:50;94509.06;;;0.19
15701;BMP180;7950;42.744;23.174;2023-02-01T04:13:25;94508.09;;;0.21
15701;BMP180;7950;42.744;23.174;2023-02-01T04:15:54;94498.63;;;0.28
15701;BMP180;7950;42.744;23.174;2023-02-01T04:18:22;94501.44;;;0.32
15701;BMP180;7950;42.744;23.174;2023-02-01T04:20:51;94511.81;;;0.39
15701;BMP180;7950;42.744;23.174;2023-02-01T04:23:19;94510.78;;;0.34
15701;BMP180;7950;42.744;23.174;2023-02-01T04:25:50;94508.44;;;0.39
15701;BMP180;7950;42.744;23.174;2023-02-01T04:28:21;94514.97;;;0.35
15701;BMP180;7950;42.744;23.174;2023-02-01T04:30:50;94501.31;;;0.41
15701;BMP180;7950;42.744;23.174;2023-02-01T04:33:18;94502.31;;;0.40
15701;BMP180;7950;42.744;23.174;2023-02-01T04:35:47;94507.50;;;0.46
15701;BMP180;7950;42.744;23.174;2023-02-01T04:38:16;94513.09;;;0.50
15701;BMP180;7950;42.744;23.174;2023-02-01T04:40:48;94517.72;;;0.54
15701;BMP180;7950;42.744;23.174;2023-02-01T04:43:27;94517.94;;;0.59
15701;BMP180;7950;42.744;23.174;2023-02-01T04:45:56;94516.78;;;0.62
15701;BMP180;7950;42.744;23.174;2023-02-01T04:48:24;94516.63;;;0.70
15701;BMP180;7950;42.744;23.174;2023-02-01T04:50:53;94513.47;;;0.74
15701;BMP180;7950;42.744;23.174;2023-02-01T04:53:22;94522.41;;;0.72
15701;BMP180;7950;42.744;23.174;2023-02-01T04:55:50;94526.22;;;0.76
15701;BMP180;7950;42.744;23.174;2023-02-01T04:58:18;94527.75;;;0.70
15701;BMP180;7950;42.744;23.174;2023-02-01T05:00:48;94536.41;;;0.84
15701;BMP180;7950;42.744;23.174;2023-02-01T05:03:18;94532.09;;;0.91
15701;BMP180;7950;42.744;23.174;2023-02-01T05:05:47;94540.94;;;0.82
15701;BMP180;7950;42.744;23.174;2023-02-01T05:08:16;94535.53;;;0.77
15701;BMP180;7950;42.744;23.174;2023-02-01T05:10:45;94545.50;;;0.80
15701;BMP180;7950;42.744;23.174;2023-02-01T05:13:13;94544.09;;;0.77
15701;BMP180;7950;42.744;23.174;2023-02-01T05:16:01;94532.78;;;0.78
15701;BMP180;7950;42.744;23.174;2023-02-01T05:18:29;94524.63;;;0.75
15701;BMP180;7950;42.744;23.174;2023-02-01T05:20:58;94526.44;;;0.81
15701;BMP180;7950;42.744;23.174;2023-02-01T05:23:26;94538.53;;;0.74
15701;BMP180;7950;42.744;23.174;2023-02-01T05:25:59;94535.59;;;0.83
15701;BMP180;7950;42.744;23.174;2023-02-01T05:28:28;94526.03;;;0.77
15701;BMP180;7950;42.744;23.174;2023-02-01T05:31:23;94530.00;;;0.80
15701;BMP180;7950;42.744;23.174;2023-02-01T05:33:52;94522.50;;;0.85
15701;BMP180;7950;42.744;23.174;2023-02-01T05:36:20;94532.63;;;0.86
15701;BMP180;7950;42.744;23.174;2023-02-01T05:38:55;94531.47;;;0.89
15701;BMP180;7950;42.744;23.174;2023-02-01T05:41:23;94533.06;;;0.90
15701;BMP180;7950;42.744;23.174;2023-02-01T05:43:52;94532.88;;;0.91
15701;BMP180;7950;42.744;23.174;2023-02-01T05:46:22;94538.09;;;0.98
15701;BMP180;7950;42.744;23.174;2023-02-01T05:49:01;94529.38;;;1.05
15701;BMP180;7950;42.744;23.174;2023-02-01T05:51:30;94527.78;;;1.04
15701;BMP180;7950;42.744;23.174;2023-02-01T05:53:59;94528.44;;;1.13
15701;BMP180;7950;42.744;23.174;2023-02-01T05:56:27;94536.63;;;1.16
15701;BMP180;7950;42.744;23.174;2023-02-01T05:59:22;94537.22;;;1.18
15701;BMP180;7950;42.744;23.174;2023-02-01T06:01:52;94530.84;;;1.14
15701;BMP180;7950;42.744;23.174;2023-02-01T06:04:20;94550.31;;;1.17
15701;BMP180;7950;42.744;23.174;2023-02-01T06:06:49;94541.19;;;1.21
15701;BMP180;7950;42.744;23.174;2023-02-01T06:09:18;94537.25;;;1.25
15701;BMP180;7950;42.744;23.174;2023-02-01T06:11:46;94530.13;;;1.27
15701;BMP180;7950;42.744;23.174;2023-02-01T06:14:15;94539.91;;;1.38
15701;BMP180;7950;42.744;23.174;2023-02-01T06:16:45;94539.50;;;1.34
15701;BMP180;7950;42.744;23.174;2023-02-01T06:19:15;94548.47;;;1.38
15701;BMP180;7950;42.744;23.174;2023-02-01T06:21:44;94541.47;;;1.32
15701;BMP180;7950;42.744;23.174;2023-02-01T06:24:12;94549.00;;;1.27
15701;BMP180;7950;42.744;23.174;2023-02-01T06:26:41;94543.09;;;1.33
15701;BMP180;7950;42.744;23.174;2023-02-01T06:29:10;94550.25;;;1.38
15701;BMP180;7950;42.744;23.174;2023-02-01T06:31:39;94546.72;;;1.45
15701;BMP180;7950;42.744;23.174;2023-02-01T06:34:10;94558.22;;;1.43
15701;BMP180;7950;42.744;23.174;2023-02-01T06:36:40;94559.44;;;1.47
15701;BMP180;7950;42.744;23.174;2023-02-01T06:39:08;94558.25;;;1.49
15701;BMP180;7950;42.744;23.174;2023-02-01T06:42:02;94550.31;;;1.51
15701;BMP180;7950;42.744;23.174;2023-02-01T06:44:30;94558.63;;;1.40
15701;BMP180;7950;42.744;23.174;2023-02-01T06:46:59;94566.16;;;1.41
15701;BMP180;7950;42.744;23.174;2023-02-01T06:49:58;94568.50;;;1.30
15701;BMP180;7950;42.744;23.174;2023-02-01T06:52:28;94568.50;;;1.30
15701;BMP180;7950;42.744;23.174;2023-02-01T06:54:57;94569.94;;;1.39
15701;BMP180;7950;42.744;23.174;2023-02-01T06:57:25;94579.31;;;1.40
15701;BMP180;7950;42.744;23.174;2023-02-01T06:59:57;94579.09;;;1.41
15701;BMP180;7950;42.744;23.174;2023-02-01T07:02:26;94588.03;;;1.39
15701;BMP180;7950;42.744;23.174;2023-02-01T07:04:55;94590.19;;;1.35
15701;BMP180;7950;42.744;23.174;2023-02-01T07:07:23;94595.19;;;1.37
15701;BMP180;7950;42.744;23.174;2023-02-01T07:09:53;94593.19;;;1.39
15701;BMP180;7950;42.744;23.174;2023-02-01T07:12:21;94597.03;;;1.49
15701;BMP180;7950;42.744;23.174;2023-02-01T07:14:50;94589.47;;;1.48
15701;BMP180;7950;42.744;23.174;2023-02-01T07:17:18;94590.34;;;1.61
15701;BMP180;7950;42.744;23.174;2023-02-01T07:19:47;94594.72;;;1.61
15701;BMP180;7950;42.744;23.174;2023-02-01T07:22:16;94603.84;;;1.57
15701;BMP180;7950;42.744;23.174;2023-02-01T07:24:45;94609.63;;;1.59
15701;BMP180;7950;42.744;23.174;2023-02-01T07:27:40;94609.84;;;1.64
15701;BMP180;7950;42.744;23.174;2023-02-01T07:30:10;94601.50;;;1.62
15701;BMP180;7950;42.744;23.174;2023-02-01T07:32:39;94619.19;;;1.65
15701;BMP180;7950;42.744;23.174;2023-02-01T07:35:08;94614.28;;;1.76
15701;BMP180;7950;42.744;23.174;2023-02-01T07:37:37;94619.72;;;1.81
15701;BMP180;7950;42.744;23.174;2023-02-01T07:40:07;94624.59;;;1.70
15701;BMP180;7950;42.744;23.174;2023-02-01T07:42:36;94619.69;;;1.75
15701;BMP180;7950;42.744;23.174;2023-02-01T07:45:08;94616.53;;;1.86
15701;BMP180;7950;42.744;23.174;2023-02-01T07:47:47;94616.16;;;1.89
15701;BMP180;7950;42.744;23.174;2023-02-01T07:50:16;94621.94;;;1.91
15701;BMP180;7950;42.744;23.174;2023-02-01T07:52:45;94621.16;;;1.90
15701;BMP180;7950;42.744;23.174;2023-02-01T07:55:14;94619.19;;;1.99
15701;BMP180;7950;42.744;23.174;2023-02-01T07:57:42;94622.97;;;2.03
15701;BMP180;7950;42.744;23.174;2023-02-01T08:00:13;94628.75;;;2.05
15701;BMP180;7950;42.744;23.174;2023-02-01T08:03:00;94630.41;;;2.12
15701;BMP180;7950;42.744;23.174;2023-02-01T08:05:28;94617.84;;;2.09
15701;BMP180;7950;42.744;23.174;2023-02-01T08:07:57;94624.63;;;2.17
15701;BMP180;7950;42.744;23.174;2023-02-01T08:10:25;94612.69;;;2.16
15701;BMP180;7950;42.744;23.174;2023-02-01T08:12:58;94626.22;;;2.18
15701;BMP180;7950;42.744;23.174;2023-02-01T08:15:30;94620.50;;;2.29
15701;BMP180;7950;42.744;23.174;2023-02-01T08:17:58;94621.53;;;2.34
15701;BMP180;7950;42.744;23.174;2023-02-01T08:20:29;94617.94;;;2.35
15701;BMP180;7950;42.744;23.174;2023-02-01T08:22:58;94621.53;;;2.47
15701;BMP180;7950;42.744;23.174;2023-02-01T08:25:26;94616.97;;;2.49
15701;BMP180;7950;42.744;23.174;2023-02-01T08:27:55;94618.56;;;2.50
15701;BMP180;7950;42.744;23.174;2023-02-01T08:30:50;94631.88;;;2.47
15701;BMP180;7950;42.744;23.174;2023-02-01T08:33:18;94641.88;;;2.57
15701;BMP180;7950;42.744;23.174;2023-02-01T08:35:47;94635.91;;;2.63
15701;BMP180;7950;42.744;23.174;2023-02-01T08:38:15;94641.50;;;2.66
15701;BMP180;7950;42.744;23.174;2023-02-01T08:40:44;94636.75;;;2.76
15701;BMP180;7950;42.744;23.174;2023-02-01T08:43:16;94638.34;;;2.84
15701;BMP180;7950;42.744;23.174;2023-02-01T08:46:11;94633.56;;;3.13
15701;BMP180;7950;42.744;23.174;2023-02-01T08:48:41;94632.34;;;3.61
15701;BMP180;7950;42.744;23.174;2023-02-01T08:51:12;94625.84;;;4.09
15701;BMP180;7950;42.744;23.174;2023-02-01T08:53:41;94631.91;;;4.41
15701;BMP180;7950;42.744;23.174;2023-02-01T08:56:13;94622.41;;;4.59
15701;BMP180;7950;42.744;23.174;2023-02-01T08:58:42;94625.78;;;4.97
15701;BMP180;7950;42.744;23.174;2023-02-01T09:01:14;94638.25;;;5.20
15701;BMP180;7950;42.744;23.174;2023-02-01T09:03:44;94638.25;;;5.44
15701;BMP180;7950;42.744;23.174;2023-02-01T09:06:14;94636.56;;;5.81
15701;BMP180;7950;42.744;23.174;2023-02-01T09:08:43;94637.50;;;5.80
15701;BMP180;7950;42.744;23.174;2023-02-01T09:11:15;94644.78;;;5.53
15701;BMP180;7950;42.744;23.174;2023-02-01T09:13:44;94635.03;;;5.91
15701;BMP180;7950;42.744;23.174;2023-02-01T09:16:14;94630.06;;;6.26
15701;BMP180;7950;42.744;23.174;2023-02-01T09:18:44;94648.50;;;6.42
15701;BMP180;7950;42.744;23.174;2023-02-01T09:21:32;94649.41;;;6.66
15701;BMP180;7950;42.744;23.174;2023-02-01T09:24:01;94635.84;;;7.05
15701;BMP180;7950;42.744;23.174;2023-02-01T09:26:31;94635.66;;;7.18
15701;BMP180;7950;42.744;23.174;2023-02-01T09:29:00;94637.88;;;7.03
15701;BMP180;7950;42.744;23.174;2023-02-01T09:31:32;94632.44;;;6.75
15701;BMP180;7950;42.744;23.174;2023-02-01T09:34:00;94639.31;;;6.40
15701;BMP180;7950;42.744;23.174;2023-02-01T09:36:29;94625.78;;;5.95
15701;BMP180;7950;42.744;23.174;2023-02-01T09:38:59;94628.88;;;5.86
15701;BMP180;7950;42.744;23.174;2023-02-01T09:41:40;94620.84;;;5.63
15701;BMP180;7950;42.744;23.174;2023-02-01T09:44:44;94617.50;;;5.38
15701;BMP180;7950;42.744;23.174;2023-02-01T09:47:19;94598.31;;;5.57
15701;BMP180;7950;42.744;23.174;2023-02-01T09:49:55;94595.41;;;5.89
15701;BMP180;7950;42.744;23.174;2023-02-01T09:52:34;94591.91;;;6.13
15701;BMP180;7950;42.744;23.174;2023-02-01T09:55:36;94585.31;;;6.29
15701;BMP180;7950;42.744;23.174;2023-02-01T09:58:13;94583.03;;;6.21
15701;BMP180;7950;42.744;23.174;2023-02-01T10:00:52;94589.94;;;6.45
15701;BMP180;7950;42.744;23.174;2023-02-01T10:03:26;94582.78;;;6.70
15701;BMP180;7950;42.744;23.174;2023-02-01T10:06:14;94580.59;;;6.96
15701;BMP180;7950;42.744;23.174;2023-02-01T10:09:44;94582.72;;;6.88
15701;BMP180;7950;42.744;23.174;2023-02-01T10:12:46;94572.66;;;7.03
15701;BMP180;7950;42.744;23.174;2023-02-01T10:15:44;94578.06;;;6.90
15701;BMP180;7950;42.744;23.174;2023-02-01T10:19:10;94568.16;;;7.10
15701;BMP180;7950;42.744;23.174;2023-02-01T10:22:02;94574.13;;;6.99
15701;BMP180;7950;42.744;23.174;2023-02-01T10:24:41;94569.03;;;7.04
15701;BMP180;7950;42.744;23.174;2023-02-01T10:27:18;94562.06;;;6.75
15701;BMP180;7950;42.744;23.174;2023-02-01T10:29:53;94559.78;;;6.78
15701;BMP180;7950;42.744;23.174;2023-02-01T10:32:28;94560.75;;;6.95
15701;BMP180;7950;42.744;23.174;2023-02-01T10:35:26;94550.66;;;6.99
15701;BMP180;7950;42.744;23.174;2023-02-01T10:38:00;94551.16;;;6.78
15701;BMP180;7950;42.744;23.174;2023-02-01T10:40:29;94552.50;;;6.69
15701;BMP180;7950;42.744;23.174;2023-02-01T10:43:01;94567.97;;;6.52
15701;BMP180;7950;42.744;23.174;2023-02-01T10:45:32;94569.78;;;6.81
15701;BMP180;7950;42.744;23.174;2023-02-01T10:48:03;94552.78;;;6.79
15701;BMP180;7950;42.744;23.174;2023-02-01T10:50:38;94550.94;;;6.79
15701;BMP180;7950;42.744;23.174;2023-02-01T10:53:15;94557.88;;;6.74
15701;BMP180;7950;42.744;23.174;2023-02-01T10:55:51;94545.28;;;6.82
15701;BMP180;7950;42.744;23.174;2023-02-01T10:58:27;94541.31;;;6.80
15701;BMP180;7950;42.744;23.174;2023-02-01T11:01:00;94555.56;;;6.66
15701;BMP180;7950;42.744;23.174;2023-02-01T11:03:41;94549.53;;;6.54
15701;BMP180;7950;42.744;23.174;2023-02-01T11:06:27;94544.53;;;6.23
15701;BMP180;7950;42.744;23.174;2023-02-01T11:08:59;94541.69;;;5.95
15701;BMP180;7950;42.744;23.174;2023-02-01T11:11:28;94537.00;;;5.79
15701;BMP180;7950;42.744;23.174;2023-02-01T11:14:00;94519.69;;;5.73
15701;BMP180;7950;42.744;23.174;2023-02-01T11:16:34;94522.72;;;5.88
15701;BMP180;7950;42.744;23.174;2023-02-01T11:19:04;94538.31;;;6.06
15701;BMP180;7950;42.744;23.174;2023-02-01T11:21:34;94522.53;;;6.19
15701;BMP180;7950;42.744;23.174;2023-02-01T11:24:32;94539.31;;;6.23
15701;BMP180;7950;42.744;23.174;2023-02-01T11:27:21;94516.13;;;6.33
15701;BMP180;7950;42.744;23.174;2023-02-01T11:29:59;94517.84;;;6.09
15701;BMP180;7950;42.744;23.174;2023-02-01T11:32:46;94521.81;;;6.30
15701;BMP180;7950;42.744;23.174;2023-02-01T11:35:19;94503.56;;;6.30
15701;BMP180;7950;42.744;23.174;2023-02-01T11:37:56;94511.69;;;6.22
15701;BMP180;7950;42.744;23.174;2023-02-01T11:40:34;94508.13;;;6.16
15701;BMP180;7950;42.744;23.174;2023-02-01T11:43:22;94497.41;;;6.24
15701;BMP180;7950;42.744;23.174;2023-02-01T11:45:56;94488.31;;;6.45
15701;BMP180;7950;42.744;23.174;2023-02-01T11:48:29;94499.94;;;6.31
15701;BMP180;7950;42.744;23.174;2023-02-01T11:51:21;94504.16;;;6.43
15701;BMP180;7950;42.744;23.174;2023-02-01T11:54:15;94512.53;;;6.34
15701;BMP180;7950;42.744;23.174;2023-02-01T11:57:00;94491.47;;;6.47
15701;BMP180;7950;42.744;23.174;2023-02-01T11:59:53;94499.56;;;6.57
15701;BMP180;7950;42.744;23.174;2023-02-01T12:05:55;94495.66;;;6.36
15701;BMP180;7950;42.744;23.174;2023-02-01T12:08:47;94498.81;;;6.38
15701;BMP180;7950;42.744;23.174;2023-02-01T12:11:38;94488.84;;;6.35
15701;BMP180;7950;42.744;23.174;2023-02-01T12:14:39;94488.72;;;6.30
15701;BMP180;7950;42.744;23.174;2023-02-01T12:17:54;94497.91;;;6.33
15701;BMP180;7950;42.744;23.174;2023-02-01T12:24:03;94488.25;;;6.22
15701;BMP180;7950;42.744;23.174;2023-02-01T12:27:04;94493.41;;;6.40
15701;BMP180;7950;42.744;23.174;2023-02-01T12:30:01;94473.38;;;6.52
15701;BMP180;7950;42.744;23.174;2023-02-01T12:32:47;94482.44;;;6.49
15701;BMP180;7950;42.744;23.174;2023-02-01T12:35:42;94485.81;;;6.50
15701;BMP180;7950;42.744;23.174;2023-02-01T12:38:37;94481.19;;;6.52
15701;BMP180;7950;42.744;23.174;2023-02-01T12:41:40;94486.66;;;6.62
15701;BMP180;7950;42.744;23.174;2023-02-01T12:44:43;94485.88;;;6.73
15701;BMP180;7950;42.744;23.174;2023-02-01T12:47:21;94488.94;;;6.70
15701;BMP180;7950;42.744;23.174;2023-02-01T12:49:58;94479.66;;;6.74
15701;BMP180;7950;42.744;23.174;2023-02-01T12:52:38;94483.25;;;6.73
15701;BMP180;7950;42.744;23.174;2023-02-01T12:55:20;94485.56;;;6.92
15701;BMP180;7950;42.744;23.174;2023-02-01T12:57:54;94481.69;;;6.95
15701;BMP180;7950;42.744;23.174;2023-02-01T13:00:32;94476.38;;;6.90
15701;BMP180;7950;42.744;23.174;2023-02-01T13:03:11;94479.78;;;6.90
15701;BMP180;7950;42.744;23.174;2023-02-01T13:05:52;94478.63;;;6.75
15701;BMP180;7950;42.744;23.174;2023-02-01T13:08:26;94481.13;;;6.70
15701;BMP180;7950;42.744;23.174;2023-02-01T13:11:03;94467.88;;;6.71
15701;BMP180;7950;42.744;23.174;2023-02-01T13:13:45;94472.06;;;6.72
15701;BMP180;7950;42.744;23.174;2023-02-01T13:16:23;94464.03;;;6.74
15701;BMP180;7950;42.744;23.174;2023-02-01T13:19:05;94464.25;;;6.72
15701;BMP180;7950;42.744;23.174;2023-02-01T13:21:39;94465.00;;;6.73
15701;BMP180;7950;42.744;23.174;2023-02-01T13:24:30;94460.50;;;6.68
15701;BMP180;7950;42.744;23.174;2023-02-01T13:27:01;94475.78;;;6.65
15701;BMP180;7950;42.744;23.174;2023-02-01T13:29:33;94454.56;;;6.61
15701;BMP180;7950;42.744;23.174;2023-02-01T13:32:39;94454.13;;;6.64
15701;BMP180;7950;42.744;23.174;2023-02-01T13:35:52;94462.72;;;6.53
15701;BMP180;7950;42.744;23.174;2023-02-01T13:39:08;94462.16;;;6.63
15701;BMP180;7950;42.744;23.174;2023-02-01T13:41:54;94455.69;;;6.54
15701;BMP180;7950;42.744;23.174;2023-02-01T13:44:30;94459.66;;;6.45
15701;BMP180;7950;42.744;23.174;2023-02-01T13:47:08;94457.97;;;6.50
15701;BMP180;7950;42.744;23.174;2023-02-01T13:49:40;94459.97;;;6.48
15701;BMP180;7950;42.744;23.174;2023-02-01T13:52:26;94459.88;;;6.55
15701;BMP180;7950;42.744;23.174;2023-02-01T13:55:15;94472.03;;;6.49
15701;BMP180;7950;42.744;23.174;2023-02-01T13:58:05;94470.50;;;6.42
15701;BMP180;7950;42.744;23.174;2023-02-01T14:00:36;94469.94;;;6.40
15701;BMP180;7950;42.744;23.174;2023-02-01T14:03:44;94471.66;;;6.46
15701;BMP180;7950;42.744;23.174;2023-02-01T14:06:53;94483.34;;;6.55
15701;BMP180;7950;42.744;23.174;2023-02-01T14:09:33;94480.84;;;6.60
15701;BMP180;7950;42.744;23.174;2023-02-01T14:15:33;94476.97;;;6.92
15701;BMP180;7950;42.744;23.174;2023-02-01T14:21:22;94479.31;;;6.82
15701;BMP180;7950;42.744;23.174;2023-02-01T14:23:58;94475.69;;;6.71
15701;BMP180;7950;42.744;23.174;2023-02-01T14:26:43;94480.91;;;6.71
15701;BMP180;7950;42.744;23.174;2023-02-01T14:29:35;94481.34;;;6.80
15701;BMP180;7950;42.744;23.174;2023-02-01T14:32:12;94476.03;;;6.75
15701;BMP180;7950;42.744;23.174;2023-02-01T14:35:25;94456.59;;;6.48
15701;BMP180;7950;42.744;23.174;2023-02-01T14:38:00;94458.16;;;6.37
15701;BMP180;7950;42.744;23.174;2023-02-01T14:40:31;94467.28;;;6.17
15701;BMP180;7950;42.744;23.174;2023-02-01T14:43:01;94469.75;;;6.12
15701;BMP180;7950;42.744;23.174;2023-02-01T14:46:04;94467.50;;;5.86
15701;BMP180;7950;42.744;23.174;2023-02-01T14:48:45;94466.34;;;5.64
15701;BMP180;7950;42.744;23.174;2023-02-01T14:51:17;94465.09;;;5.48
15701;BMP180;7950;42.744;23.174;2023-02-01T14:53:50;94460.19;;;5.40
15701;BMP180;7950;42.744;23.174;2023-02-01T14:56:20;94462.78;;;5.40
15701;BMP180;7950;42.744;23.174;2023-02-01T14:58:55;94453.53;;;5.26
15701;BMP180;7950;42.744;23.174;2023-02-01T15:01:53;94449.84;;;5.16
15701;BMP180;7950;42.744;23.174;2023-02-01T15:04:27;94466.09;;;5.11
15701;BMP180;7950;42.744;23.174;2023-02-01T15:06:58;94469.50;;;5.12
15701;BMP180;7950;42.744;23.174;2023-02-01T15:09:45;94474.53;;;5.07
15701;BMP180;7950;42.744;23.174;2023-02-01T15:12:40;94473.72;;;5.06
15701;BMP180;7950;42.744;23.174;2023-02-01T15:15:16;94447.88;;;4.93
15701;BMP180;7950;42.744;23.174;2023-02-01T15:17:56;94442.59;;;5.00
15701;BMP180;7950;42.744;23.174;2023-02-01T15:20:27;94443.91;;;5.09
15701;BMP180;7950;42.744;23.174;2023-02-01T15:23:00;94443.06;;;5.15
15701;BMP180;7950;42.744;23.174;2023-02-01T15:25:33;94431.31;;;5.12
15701;BMP180;7950;42.744;23.174;2023-02-01T15:28:03;94436.13;;;5.09
15701;BMP180;7950;42.744;23.174;2023-02-01T15:30:35;94445.63;;;4.97
15701;BMP180;7950;42.744;23.174;2023-02-01T15:33:07;94433.50;;;4.91
15701;BMP180;7950;42.744;23.174;2023-02-01T15:35:42;94446.59;;;4.78